createdAt,value
2017-10-23T00:01:28.600Z,72.90
2017-10-23T00:03:55.292Z,72.90
2017-10-23T00:06:21.472Z,73.10
2017-10-23T00:08:47.621Z,72.70
2017-10-23T00:11:13.841Z,72.90
2017-10-23T00:13:40.016Z,73.40
2017-10-23T00:16:06.123Z,73.10
2017-10-23T00:18:32.317Z,73.10
2017-10-23T00:20:58.469Z,72.80
2017-10-23T00:23:24.649Z,73.00
2017-10-23T00:25:51.597Z,73.50
2017-10-23T00:28:18.508Z,73.40
2017-10-23T00:30:44.694Z,73.40
2017-10-23T00:33:10.829Z,73.20
2017-10-23T00:35:36.981Z,73.30
2017-10-23T00:38:03.217Z,72.60
2017-10-23T00:40:29.468Z,71.20
2017-10-23T00:42:56.385Z,73.40
2017-10-23T00:45:22.573Z,73.30
2017-10-23T00:47:48.712Z,73.30
2017-10-23T00:50:14.928Z,73.10
2017-10-23T00:52:41.147Z,72.70
2017-10-23T00:55:07.385Z,73.10
2017-10-23T00:57:33.632Z,72.70
2017-10-23T01:00:00.449Z,72.30
2017-10-23T01:02:26.716Z,72.50
2017-10-23T01:04:52.946Z,72.70
2017-10-23T01:07:19.090Z,72.30
2017-10-23T01:09:45.325Z,72.30
2017-10-23T01:12:12.274Z,72.10
2017-10-23T01:14:38.475Z,72.10
2017-10-23T01:17:04.716Z,71.30
2017-10-23T01:19:30.979Z,72.10
2017-10-23T01:21:57.195Z,71.80
2017-10-23T01:24:24.120Z,72.10
2017-10-23T01:26:50.375Z,71.90
2017-10-23T01:29:17.407Z,72.00
2017-10-23T01:31:43.589Z,72.00
2017-10-23T01:34:09.780Z,72.00
2017-10-23T01:36:36.668Z,71.60
2017-10-23T01:39:02.941Z,71.60
2017-10-23T01:41:29.917Z,71.90
2017-10-23T01:43:56.114Z,71.90
2017-10-23T01:46:23.049Z,71.30
2017-10-23T01:48:49.243Z,71.20
2017-10-23T01:51:15.357Z,70.90
2017-10-23T01:53:41.545Z,71.50
2017-10-23T01:56:08.536Z,72.20
2017-10-23T01:58:34.740Z,72.10
2017-10-23T02:01:00.989Z,72.30
2017-10-23T02:03:27.142Z,72.40
2017-10-23T02:05:53.365Z,72.50
2017-10-23T02:08:19.473Z,72.40
2017-10-23T02:10:45.682Z,72.20
2017-10-23T02:13:11.929Z,71.00
2017-10-23T02:15:38.141Z,72.40
2017-10-23T02:18:04.282Z,72.50
2017-10-23T02:20:30.498Z,72.40
2017-10-23T02:22:56.693Z,72.20
2017-10-23T02:25:23.651Z,71.70
2017-10-23T02:27:49.840Z,71.70
2017-10-23T02:30:16.112Z,72.30
2017-10-23T02:32:42.282Z,72.20
2017-10-23T02:35:08.470Z,72.20
2017-10-23T02:37:34.626Z,72.50
2017-10-23T02:40:00.754Z,72.20
2017-10-23T02:42:26.937Z,72.60
2017-10-23T02:44:53.848Z,72.60
2017-10-23T02:47:19.998Z,72.60
2017-10-23T02:49:46.952Z,71.90
2017-10-23T02:52:13.920Z,72.30
2017-10-23T02:54:40.101Z,72.40
2017-10-23T02:57:06.219Z,71.30
2017-10-23T02:59:32.341Z,72.70
2017-10-23T03:01:58.818Z,72.30
2017-10-23T03:04:25.775Z,72.80
2017-10-23T03:06:51.969Z,72.80
2017-10-23T03:09:18.960Z,72.20
2017-10-23T03:11:45.164Z,72.10
2017-10-23T03:14:12.067Z,72.70
2017-10-23T03:16:38.275Z,72.60
2017-10-23T03:19:04.535Z,72.10
2017-10-23T03:21:30.728Z,72.20
2017-10-23T03:23:56.928Z,72.50
2017-10-23T03:26:23.096Z,71.40
2017-10-23T03:28:49.339Z,72.40
2017-10-23T03:31:15.530Z,72.00
2017-10-23T03:33:41.737Z,71.50
2017-10-23T03:36:07.970Z,72.10
2017-10-23T03:38:34.544Z,71.90
2017-10-23T03:41:00.716Z,71.40
2017-10-23T03:43:27.660Z,71.80
2017-10-23T03:45:54.592Z,71.90
2017-10-23T03:48:20.782Z,71.80
2017-10-23T03:50:46.953Z,71.90
2017-10-23T03:53:13.947Z,71.90
2017-10-23T03:55:40.206Z,71.20
2017-10-23T03:58:06.377Z,71.70
2017-10-23T04:00:32.665Z,73.00
2017-10-23T04:02:58.898Z,72.90
2017-10-23T04:05:25.097Z,72.80
2017-10-23T04:07:51.398Z,72.30
2017-10-23T04:10:17.627Z,71.90
2017-10-23T04:12:43.939Z,72.60
2017-10-23T04:15:10.903Z,72.40
2017-10-23T04:17:37.099Z,72.40
2017-10-23T04:20:04.098Z,72.20
2017-10-23T04:22:30.301Z,72.20
2017-10-23T04:24:56.550Z,72.10
2017-10-23T04:27:22.779Z,72.20
2017-10-23T04:29:48.964Z,72.30
2017-10-23T04:32:15.916Z,72.30
2017-10-23T04:34:42.901Z,71.80
2017-10-23T04:37:09.117Z,71.80
2017-10-23T04:39:35.379Z,72.00
2017-10-23T04:42:01.636Z,71.80
2017-10-23T04:44:28.684Z,72.00
2017-10-23T04:46:54.933Z,72.00
2017-10-23T04:49:21.916Z,72.00
2017-10-23T04:51:48.171Z,72.00
2017-10-23T04:54:14.392Z,71.70
2017-10-23T04:56:40.608Z,72.10
2017-10-23T04:59:06.873Z,71.70
2017-10-23T05:01:33.100Z,71.30
2017-10-23T05:04:00.039Z,71.70
2017-10-23T05:06:26.269Z,71.70
2017-10-23T05:08:53.254Z,71.30
2017-10-23T05:11:20.025Z,71.30
2017-10-23T05:13:46.291Z,72.50
2017-10-23T05:16:13.246Z,72.50
2017-10-23T05:18:40.245Z,72.60
2017-10-23T05:21:06.489Z,72.60
2017-10-23T05:23:32.669Z,72.40
2017-10-23T05:25:58.889Z,71.50
2017-10-23T05:28:25.102Z,73.00
2017-10-23T05:30:52.140Z,72.90
2017-10-23T05:33:19.109Z,71.70
2017-10-23T05:35:46.040Z,72.50
2017-10-23T05:38:12.970Z,72.80
2017-10-23T05:40:39.173Z,73.80
2017-10-23T05:43:05.378Z,73.30
2017-10-23T05:45:31.572Z,72.80
2017-10-23T05:47:58.528Z,72.10
2017-10-23T05:50:24.741Z,72.10
2017-10-23T05:52:51.707Z,73.30
2017-10-23T05:55:17.923Z,72.80
2017-10-23T05:57:44.226Z,72.20
2017-10-23T06:00:10.428Z,72.40
2017-10-23T06:02:37.407Z,71.20
2017-10-23T06:05:03.665Z,71.20
2017-10-23T06:07:29.897Z,72.40
2017-10-23T06:09:56.136Z,72.20
2017-10-23T06:12:22.385Z,72.40
2017-10-23T06:14:48.684Z,71.80
2017-10-23T06:17:14.932Z,72.60
2017-10-23T06:19:41.147Z,71.70
2017-10-23T06:22:07.354Z,74.20
2017-10-23T06:24:34.318Z,74.80
2017-10-23T06:27:00.599Z,74.70
2017-10-23T06:29:26.845Z,74.20
2017-10-23T06:31:53.080Z,73.90
2017-10-23T06:34:20.272Z,75.70
2017-10-23T06:36:46.544Z,75.70
2017-10-23T06:39:12.741Z,75.70
2017-10-23T06:41:38.974Z,74.80
2017-10-23T06:44:05.195Z,75.50
2017-10-23T06:46:31.526Z,74.60
2017-10-23T06:48:57.804Z,75.60
2017-10-23T06:51:24.775Z,76.00
2017-10-23T06:53:51.095Z,76.00
2017-10-23T06:56:18.148Z,75.20
2017-10-23T06:58:44.632Z,75.10
2017-10-23T07:01:11.112Z,74.80
2017-10-23T07:03:37.363Z,75.10
2017-10-23T07:06:03.607Z,73.90
2017-10-23T07:08:29.850Z,74.50
2017-10-23T07:10:56.841Z,72.40
2017-10-23T07:13:24.073Z,72.80
2017-10-23T07:15:51.112Z,74.20
2017-10-23T07:18:17.341Z,74.20
2017-10-23T07:20:43.621Z,73.00
2017-10-23T07:23:10.039Z,72.80
2017-10-23T07:25:36.334Z,70.80
2017-10-23T07:28:02.534Z,72.20
2017-10-23T07:30:28.761Z,71.90
2017-10-23T07:32:54.980Z,72.20
2017-10-23T07:35:21.308Z,72.60
2017-10-23T07:37:47.486Z,72.90
2017-10-23T07:40:13.723Z,72.50
2017-10-23T07:42:40.729Z,73.50
2017-10-23T07:45:06.955Z,73.50
2017-10-23T07:47:33.926Z,73.70
2017-10-23T07:50:00.353Z,73.70
2017-10-23T07:52:26.500Z,73.80
2017-10-23T07:54:53.477Z,73.80
2017-10-23T07:57:19.805Z,73.30
2017-10-23T07:59:45.989Z,74.10
2017-10-23T08:02:12.953Z,74.80
2017-10-23T08:04:40.024Z,74.10
2017-10-23T08:07:06.219Z,74.10
2017-10-23T08:09:32.413Z,74.80
2017-10-23T08:11:58.584Z,75.10
2017-10-23T08:14:25.647Z,74.30
2017-10-23T08:16:51.905Z,74.30
2017-10-23T08:19:18.183Z,75.40
2017-10-23T08:21:45.112Z,75.60
2017-10-23T08:24:11.316Z,75.50
2017-10-23T08:26:37.493Z,75.40
2017-10-23T08:29:04.485Z,76.00
2017-10-23T08:31:30.681Z,75.90
2017-10-23T08:33:56.905Z,74.80
2017-10-23T08:36:23.807Z,73.40
2017-10-23T08:38:49.991Z,73.30
2017-10-23T08:41:16.198Z,74.40
2017-10-23T08:43:43.113Z,75.60
2017-10-23T08:46:09.248Z,74.70
2017-10-23T08:48:35.460Z,74.40
2017-10-23T08:51:01.647Z,74.00
2017-10-23T08:53:27.900Z,73.30
2017-10-23T08:55:54.103Z,75.20
2017-10-23T08:58:20.314Z,74.50
2017-10-23T09:00:47.367Z,74.80
2017-10-23T09:03:13.621Z,74.80
2017-10-23T09:05:39.868Z,73.50
2017-10-23T09:08:06.141Z,74.30
2017-10-23T09:10:33.153Z,74.70
2017-10-23T09:12:59.380Z,74.70
2017-10-23T09:15:25.596Z,75.30
2017-10-23T09:17:51.784Z,75.10
2017-10-23T09:20:18.004Z,74.40
2017-10-23T09:22:44.157Z,75.80
2017-10-23T09:25:10.361Z,75.50
2017-10-23T09:27:37.266Z,75.60
2017-10-23T09:30:03.431Z,75.60
2017-10-23T09:32:30.412Z,76.90
2017-10-23T09:34:56.594Z,76.80
2017-10-23T09:37:23.548Z,75.40
2017-10-23T09:39:50.525Z,75.00
2017-10-23T09:42:16.738Z,75.00
2017-10-23T09:44:42.932Z,72.70
2017-10-23T09:47:09.899Z,74.00
2017-10-23T09:49:36.082Z,73.30
2017-10-23T09:52:02.311Z,73.30
2017-10-23T09:54:28.593Z,73.50
2017-10-23T09:56:54.748Z,74.80
2017-10-23T09:59:20.997Z,73.60
2017-10-23T10:01:47.178Z,73.80
2017-10-23T10:04:13.878Z,74.10
2017-10-23T10:06:40.038Z,72.10
2017-10-23T10:09:06.926Z,70.10
2017-10-23T10:11:33.099Z,70.10
2017-10-23T10:14:00.057Z,70.80
2017-10-23T10:16:26.308Z,70.70
2017-10-23T10:18:52.474Z,71.50
2017-10-23T10:21:18.602Z,72.00
2017-10-23T10:23:44.753Z,72.00
2017-10-23T10:26:11.700Z,71.80
2017-10-23T10:28:37.968Z,71.80
2017-10-23T10:31:04.153Z,72.50
2017-10-23T10:33:31.074Z,72.90
2017-10-23T10:35:57.245Z,72.90
2017-10-23T10:38:23.500Z,72.50
2017-10-23T10:40:49.716Z,72.50
2017-10-23T10:43:15.885Z,72.10
2017-10-23T10:45:42.026Z,72.00
2017-10-23T10:48:08.226Z,72.40
2017-10-23T10:50:34.414Z,72.40
2017-10-23T10:53:00.555Z,71.90
2017-10-23T10:55:26.780Z,72.50
2017-10-23T10:57:52.913Z,72.70
2017-10-23T11:00:19.092Z,71.90
2017-10-23T11:02:46.086Z,72.10
2017-10-23T11:05:12.271Z,71.80
2017-10-23T11:07:39.216Z,69.80
2017-10-23T11:10:06.195Z,69.40
2017-10-23T11:12:32.429Z,69.30
2017-10-23T11:14:58.676Z,69.60
2017-10-23T11:17:26.447Z,70.00
2017-10-23T11:19:52.721Z,69.90
2017-10-23T11:22:19.672Z,68.50
2017-10-23T11:24:46.225Z,68.50
2017-10-23T11:27:12.473Z,68.70
2017-10-23T11:29:38.681Z,68.00
2017-10-23T11:32:04.904Z,68.10
2017-10-23T11:34:31.035Z,68.20
2017-10-23T11:36:57.217Z,68.70
2017-10-23T11:39:23.395Z,68.10
2017-10-23T11:41:49.547Z,67.70
2017-10-23T11:44:15.750Z,68.30
2017-10-23T11:46:41.909Z,67.60
2017-10-23T11:49:08.132Z,66.80
2017-10-23T11:51:34.550Z,66.80
2017-10-23T11:54:00.751Z,67.30
2017-10-23T11:56:26.893Z,66.20
2017-10-23T11:58:53.098Z,65.70
2017-10-23T12:01:19.308Z,66.80
2017-10-23T12:03:46.277Z,67.80
2017-10-23T12:06:12.493Z,67.00
2017-10-23T12:08:38.719Z,67.10
2017-10-23T12:11:05.702Z,66.60
2017-10-23T12:13:31.856Z,66.40
2017-10-23T12:15:58.058Z,66.70
2017-10-23T12:18:24.286Z,67.00
2017-10-23T12:20:50.482Z,66.80
2017-10-23T12:23:17.402Z,67.10
2017-10-23T12:25:43.601Z,67.00
2017-10-23T12:28:09.809Z,66.50
2017-10-23T12:30:36.084Z,67.00
2017-10-23T12:33:02.285Z,66.10
2017-10-23T12:35:28.560Z,66.90
2017-10-23T12:37:55.611Z,67.70
2017-10-23T12:40:22.529Z,67.80
2017-10-23T12:42:48.696Z,67.70
2017-10-23T12:45:14.952Z,68.00
2017-10-23T12:47:41.263Z,68.10
2017-10-23T12:50:07.504Z,67.30
2017-10-23T12:52:33.651Z,68.20
2017-10-23T12:54:59.838Z,69.30
2017-10-23T12:57:25.994Z,68.20
2017-10-23T12:59:52.210Z,68.20
2017-10-23T13:02:18.451Z,67.80
2017-10-23T13:04:44.582Z,68.90
2017-10-23T13:07:10.805Z,68.40
2017-10-23T13:09:36.970Z,66.50
2017-10-23T13:12:03.149Z,68.90
2017-10-23T13:14:29.308Z,68.90
2017-10-23T13:16:55.474Z,68.60
2017-10-23T13:19:22.380Z,68.50
2017-10-23T13:21:55.591Z,68.50
2017-10-23T13:24:21.782Z,68.40
2017-10-23T13:26:48.165Z,67.40
2017-10-23T13:29:15.139Z,67.20
2017-10-23T13:31:41.570Z,67.80
2017-10-23T13:34:07.826Z,67.50
2017-10-23T13:36:33.997Z,68.60
2017-10-23T13:39:00.855Z,69.70
2017-10-23T13:41:27.023Z,69.70
2017-10-23T13:43:53.232Z,70.70
2017-10-23T13:46:19.457Z,70.30
2017-10-23T13:48:45.602Z,71.50
2017-10-23T13:51:11.777Z,71.80
2017-10-23T13:53:38.736Z,70.70
2017-10-23T13:56:05.270Z,70.70
2017-10-23T13:58:32.178Z,70.70
2017-10-23T14:00:58.432Z,70.70
2017-10-23T14:03:25.405Z,69.10
2017-10-23T14:05:51.671Z,69.10
2017-10-23T14:08:17.859Z,68.00
2017-10-23T14:10:44.086Z,69.80
2017-10-23T14:13:10.246Z,68.90
2017-10-23T14:15:36.429Z,70.20
2017-10-23T14:18:02.640Z,69.70
2017-10-23T14:20:29.611Z,69.80
2017-10-23T14:22:55.792Z,69.80
2017-10-23T14:25:22.029Z,70.40
2017-10-23T14:27:48.437Z,69.90
2017-10-23T14:30:14.661Z,70.10
2017-10-23T14:32:40.888Z,70.30
2017-10-23T14:35:07.160Z,70.10
2017-10-23T14:37:34.159Z,71.90
2017-10-23T14:40:00.413Z,71.80
2017-10-23T14:42:26.665Z,73.70
2017-10-23T14:44:53.676Z,72.00
2017-10-23T14:47:19.944Z,72.00
2017-10-23T14:49:46.938Z,70.10
2017-10-23T14:52:13.138Z,70.10
2017-10-23T14:54:39.339Z,72.80
2017-10-23T14:57:05.608Z,72.10
2017-10-23T14:59:31.801Z,71.50
2017-10-23T15:01:58.710Z,72.40
2017-10-23T15:04:24.941Z,72.30
2017-10-23T15:06:51.897Z,72.40
2017-10-23T15:09:18.100Z,72.40
2017-10-23T15:11:44.317Z,72.70
2017-10-23T15:14:10.486Z,72.20
2017-10-23T15:16:36.713Z,72.90
2017-10-23T15:19:02.924Z,73.30
2017-10-23T15:21:29.908Z,74.80
2017-10-23T15:23:56.829Z,73.90
2017-10-23T15:26:23.016Z,73.80
2017-10-23T15:28:49.254Z,74.30
2017-10-23T15:31:15.753Z,74.20
2017-10-23T15:33:42.032Z,73.80
2017-10-23T15:36:08.288Z,74.10
2017-10-23T15:38:35.248Z,74.30
2017-10-23T15:41:02.310Z,74.30
2017-10-23T15:43:28.471Z,74.30
2017-10-23T15:45:54.663Z,74.20
2017-10-23T15:48:20.871Z,73.20
2017-10-23T15:50:47.784Z,74.60
2017-10-23T15:53:13.961Z,74.60
2017-10-23T15:55:40.151Z,74.70
2017-10-23T15:58:06.336Z,74.60
2017-10-23T16:00:32.514Z,74.90
2017-10-23T16:02:58.682Z,74.40
2017-10-23T16:05:24.860Z,74.60
2017-10-23T16:07:51.141Z,75.30
2017-10-23T16:10:17.328Z,75.00
2017-10-23T16:12:43.536Z,75.40
2017-10-23T16:15:10.543Z,75.20
2017-10-23T16:17:36.788Z,75.20
2017-10-23T16:20:02.990Z,74.90
2017-10-23T16:22:29.200Z,75.20
2017-10-23T16:24:56.130Z,75.50
2017-10-23T16:27:22.375Z,75.50
2017-10-23T16:29:49.361Z,75.60
2017-10-23T16:32:15.498Z,75.50
2017-10-23T16:34:41.697Z,75.70
2017-10-23T16:37:07.897Z,75.50
2017-10-23T16:39:34.842Z,76.20
2017-10-23T16:42:01.836Z,76.70
2017-10-23T16:44:28.014Z,76.50
2017-10-23T16:46:55.004Z,77.20
2017-10-23T16:49:21.245Z,76.70
2017-10-23T16:51:47.380Z,76.10
2017-10-23T16:54:13.556Z,76.20
2017-10-23T16:56:40.453Z,76.60
2017-10-23T16:59:06.621Z,76.50
2017-10-23T17:01:33.560Z,76.90
2017-10-23T17:04:00.483Z,76.60
2017-10-23T17:06:26.737Z,76.60
2017-10-23T17:08:53.715Z,77.70
2017-10-23T17:11:19.917Z,77.70
2017-10-23T17:13:46.816Z,77.60
2017-10-23T17:16:13.024Z,77.50
2017-10-23T17:18:39.264Z,77.10
2017-10-23T17:21:05.476Z,76.70
2017-10-23T17:23:31.701Z,77.20
2017-10-23T17:25:57.876Z,77.20
2017-10-23T17:28:24.083Z,77.50
2017-10-23T17:30:50.275Z,76.90
2017-10-23T17:33:16.453Z,76.90
2017-10-23T17:35:43.379Z,76.90
2017-10-23T17:38:09.552Z,76.90
2017-10-23T17:40:36.472Z,77.40
2017-10-23T17:43:02.631Z,77.30
2017-10-23T17:45:29.546Z,76.40
2017-10-23T17:47:55.708Z,76.30
2017-10-23T17:50:21.927Z,76.90
2017-10-23T17:52:48.164Z,77.50
2017-10-23T17:55:14.385Z,77.80
2017-10-23T17:57:41.269Z,75.40
2017-10-23T18:00:07.437Z,75.30
2017-10-23T18:02:33.690Z,76.30
2017-10-23T18:04:59.899Z,75.30
2017-10-23T18:07:26.880Z,76.30
2017-10-23T18:09:53.075Z,76.20
2017-10-23T18:12:20.053Z,75.80
2017-10-23T18:14:46.254Z,75.70
2017-10-23T18:17:13.151Z,76.00
2017-10-23T18:19:39.424Z,75.90
2017-10-23T18:22:06.422Z,75.00
2017-10-23T18:24:32.644Z,74.90
2017-10-23T18:26:58.890Z,75.70
2017-10-23T18:29:25.074Z,74.30
2017-10-23T18:31:51.309Z,75.70
2017-10-23T18:34:17.494Z,76.00
2017-10-23T18:36:44.400Z,75.30
2017-10-23T18:39:10.668Z,75.30
2017-10-23T18:41:36.891Z,75.50
2017-10-23T18:44:03.091Z,75.10
2017-10-23T18:46:29.298Z,75.10
2017-10-23T18:48:55.941Z,74.30
2017-10-23T18:51:22.189Z,74.60
2017-10-23T18:53:48.407Z,74.60
2017-10-23T18:56:14.580Z,74.50
2017-10-23T18:58:40.809Z,74.50
2017-10-23T19:01:07.725Z,75.10
2017-10-23T19:03:33.938Z,74.40
2017-10-23T19:06:00.119Z,74.10
2017-10-23T19:08:27.058Z,73.80
2017-10-23T19:10:53.971Z,74.60
2017-10-23T19:13:20.191Z,74.50
2017-10-23T19:15:46.415Z,75.30
2017-10-23T19:18:12.546Z,75.10
2017-10-23T19:20:38.777Z,75.30
2017-10-23T19:23:04.969Z,75.00
2017-10-23T19:25:31.144Z,73.60
2017-10-23T19:27:57.396Z,75.00
2017-10-23T19:30:24.286Z,74.80
2017-10-23T19:32:50.485Z,74.80
2017-10-23T19:35:17.442Z,74.60
2017-10-23T19:37:43.662Z,74.60
2017-10-23T19:40:10.202Z,74.60
2017-10-23T19:42:36.404Z,74.60
2017-10-23T19:45:03.320Z,74.60
2017-10-23T19:47:29.581Z,74.60
2017-10-23T19:49:56.465Z,74.70
2017-10-23T19:52:22.674Z,74.70
2017-10-23T19:54:48.887Z,74.20
2017-10-23T19:57:15.862Z,74.90
2017-10-23T19:59:42.083Z,74.90
2017-10-23T20:02:08.325Z,74.80
2017-10-23T20:04:34.522Z,74.40
2017-10-23T20:07:01.468Z,74.90
2017-10-23T20:09:28.411Z,74.80
2017-10-23T20:11:55.334Z,74.00
2017-10-23T20:14:21.475Z,74.00
2017-10-23T20:16:48.441Z,74.60
2017-10-23T20:19:14.669Z,74.60
2017-10-23T20:21:40.833Z,74.50
2017-10-23T20:24:07.788Z,74.50
2017-10-23T20:26:34.007Z,74.50
2017-10-23T20:29:00.141Z,74.60
2017-10-23T20:31:26.304Z,74.60
2017-10-23T20:33:53.252Z,74.50
2017-10-23T20:36:20.240Z,74.30
2017-10-23T20:38:46.462Z,74.30
2017-10-23T20:41:12.636Z,74.00
2017-10-23T20:43:38.843Z,75.10
2017-10-23T20:46:05.032Z,74.90
2017-10-23T20:48:31.225Z,74.20
2017-10-23T20:50:57.428Z,75.70
2017-10-23T20:53:23.602Z,76.50
2017-10-23T20:55:50.554Z,75.90
2017-10-23T20:58:17.410Z,75.90
2017-10-23T21:00:45.565Z,76.10
2017-10-23T21:03:11.741Z,76.00
2017-10-23T21:05:37.921Z,76.30
2017-10-23T21:08:04.813Z,75.10
2017-10-23T21:10:31.012Z,75.10
2017-10-23T21:12:57.541Z,75.80
2017-10-23T21:15:23.779Z,75.50
2017-10-23T21:17:49.936Z,75.50
2017-10-23T21:20:16.171Z,75.40
2017-10-23T21:22:42.326Z,75.10
2017-10-23T21:25:09.269Z,75.70
2017-10-23T21:27:35.495Z,75.60
2017-10-23T21:30:02.409Z,76.10
2017-10-23T21:32:28.609Z,76.00
2017-10-23T21:34:54.860Z,76.30
2017-10-23T21:37:21.040Z,75.50
2017-10-23T21:39:47.916Z,76.10
2017-10-23T21:42:14.096Z,76.10
2017-10-23T21:44:41.024Z,75.60
2017-10-23T21:47:08.149Z,75.60
2017-10-23T21:49:34.344Z,74.90
2017-10-23T21:52:07.451Z,76.00
2017-10-23T21:54:33.613Z,75.60
2017-10-23T21:57:00.533Z,76.10
2017-10-23T21:59:26.755Z,76.20
2017-10-23T22:01:52.933Z,76.10
2017-10-23T22:04:19.836Z,75.70
2017-10-23T22:06:46.032Z,75.70
2017-10-23T22:09:12.254Z,76.70
2017-10-23T22:11:38.449Z,75.80
2017-10-23T22:14:04.670Z,76.30
2017-10-23T22:16:31.605Z,77.20
2017-10-23T22:18:57.805Z,76.80
2017-10-23T22:21:24.262Z,76.50
2017-10-23T22:23:50.471Z,76.80
2017-10-23T22:26:16.638Z,77.00
2017-10-23T22:28:42.863Z,76.50
2017-10-23T22:31:09.009Z,76.50
2017-10-23T22:33:35.955Z,76.70
2017-10-23T22:36:02.901Z,75.60
2017-10-23T22:38:29.746Z,76.60
2017-10-23T22:40:56.657Z,76.50
2017-10-23T22:43:22.810Z,76.50
2017-10-23T22:45:49.740Z,77.10
2017-10-23T22:48:16.702Z,76.60
2017-10-23T22:50:43.635Z,77.10
2017-10-23T22:53:09.829Z,77.00
2017-10-23T22:55:36.018Z,77.10
2017-10-23T22:58:02.209Z,76.40
2017-10-23T23:00:28.377Z,77.40
2017-10-23T23:02:55.272Z,76.80
2017-10-23T23:05:21.426Z,76.80
2017-10-23T23:07:48.360Z,76.90
2017-10-23T23:10:14.853Z,76.90
2017-10-23T23:12:41.006Z,76.90
2017-10-23T23:15:07.124Z,76.60
2017-10-23T23:17:33.337Z,76.50
2017-10-23T23:19:59.525Z,76.50
2017-10-23T23:22:26.494Z,75.10
2017-10-23T23:24:52.733Z,75.00
2017-10-23T23:27:19.015Z,76.20
2017-10-23T23:29:46.007Z,76.00
2017-10-23T23:32:12.172Z,75.90
2017-10-23T23:34:38.345Z,76.00
2017-10-23T23:37:04.511Z,75.30
2017-10-23T23:39:30.654Z,75.50
2017-10-23T23:41:56.829Z,76.20
2017-10-23T23:44:22.961Z,76.00
2017-10-23T23:46:49.119Z,75.70
2017-10-23T23:49:15.318Z,76.40
2017-10-23T23:51:41.487Z,76.40
2017-10-23T23:54:07.653Z,76.80
2017-10-23T23:56:33.834Z,77.10
2017-10-23T23:58:59.954Z,77.10
